createdAt,value
2023-03-25T00:02:21.672Z,94393.00
2023-03-25T00:04:52.039Z,94401.47
2023-03-25T00:07:20.148Z,94393.34
2023-03-25T00:09:48.860Z,94397.22
2023-03-25T00:12:19.601Z,94394.84
2023-03-25T00:14:54.483Z,94391.91
2023-03-25T00:17:23.080Z,94386.22
2023-03-25T00:19:51.963Z,94383.75
2023-03-25T00:22:20.255Z,94392.22
2023-03-25T00:24:47.890Z,94382.78
2023-03-25T00:27:17.563Z,94374.63
2023-03-25T00:29:45.566Z,94386.91
2023-03-25T00:32:14.608Z,94391.25
2023-03-25T00:34:47.722Z,94396.16
2023-03-25T00:37:17.628Z,94397.81
2023-03-25T00:39:46.151Z,94399.81
2023-03-25T00:42:18.010Z,94397.50
2023-03-25T00:44:45.826Z,94414.09
2023-03-25T00:47:18.356Z,94404.44
2023-03-25T00:49:46.419Z,94406.06
2023-03-25T00:52:14.355Z,94403.91
2023-03-25T00:54:42.000Z,94394.25
2023-03-25T00:57:09.782Z,94396.47
2023-03-25T00:59:38.887Z,94385.94
2023-03-25T01:02:07.178Z,94392.19
2023-03-25T01:04:35.226Z,94394.41
2023-03-25T01:07:03.550Z,94393.91
2023-03-25T01:09:31.687Z,94380.91
2023-03-25T01:11:59.406Z,94383.06
2023-03-25T01:14:29.076Z,94390.47
2023-03-25T01:16:59.836Z,94378.28
2023-03-25T01:19:28.199Z,94382.09
2023-03-25T01:21:55.880Z,94384.81
2023-03-25T01:24:23.767Z,94379.94
2023-03-25T01:26:51.388Z,94364.47
2023-03-25T01:29:20.700Z,94365.28
2023-03-25T01:31:48.540Z,94354.72
2023-03-25T01:34:17.702Z,94368.84
2023-03-25T01:36:46.680Z,94360.97
2023-03-25T01:39:16.574Z,94359.31
2023-03-25T01:41:50.128Z,94356.59
2023-03-25T01:44:57.254Z,94367.34
2023-03-25T01:47:26.704Z,94376.59
2023-03-25T01:49:55.858Z,94378.13
2023-03-25T01:52:26.317Z,94375.66
2023-03-25T01:54:55.581Z,94376.47
2023-03-25T01:57:24.513Z,94373.75
2023-03-25T01:59:53.352Z,94374.84
2023-03-25T02:02:21.373Z,94362.75
2023-03-25T02:04:58.897Z,94360.66
2023-03-25T02:07:30.863Z,94358.41
2023-03-25T02:10:02.130Z,94346.16
2023-03-25T02:12:29.862Z,94345.75
2023-03-25T02:14:58.420Z,94344.09
2023-03-25T02:17:32.965Z,94336.38
2023-03-25T02:20:24.830Z,94338.28
2023-03-25T02:23:08.570Z,94337.38
2023-03-25T02:26:17.290Z,94336.69
2023-03-25T02:28:49.621Z,94347.13
2023-03-25T02:31:48.378Z,94350.66
2023-03-25T02:34:37.924Z,94353.25
2023-03-25T02:37:46.962Z,94364.09
2023-03-25T02:40:19.679Z,94358.84
2023-03-25T02:42:50.532Z,94380.66
2023-03-25T02:45:21.292Z,94379.03
2023-03-25T02:47:51.497Z,94383.59
2023-03-25T02:50:23.229Z,94387.72
2023-03-25T02:52:53.048Z,94386.16
2023-03-25T02:55:25.448Z,94375.94
2023-03-25T02:57:54.726Z,94373.94
2023-03-25T03:00:26.736Z,94352.84
2023-03-25T03:02:59.832Z,94352.41
2023-03-25T03:05:29.414Z,94344.53
2023-03-25T03:08:08.950Z,94356.56
2023-03-25T03:10:44.343Z,94351.06
2023-03-25T03:13:20.458Z,94356.84
2023-03-25T03:15:54.403Z,94343.13
2023-03-25T03:18:34.191Z,94350.91
2023-03-25T03:21:10.356Z,94357.38
2023-03-25T03:23:46.032Z,94361.41
2023-03-25T03:26:21.622Z,94352.47
2023-03-25T03:28:53.150Z,94353.75
2023-03-25T03:31:47.536Z,94355.78
2023-03-25T03:34:16.385Z,94350.94
2023-03-25T03:36:46.445Z,94363.81
2023-03-25T03:39:19.915Z,94356.72
2023-03-25T03:41:52.562Z,94369.13
2023-03-25T03:44:22.233Z,94354.97
2023-03-25T03:46:54.684Z,94353.00
2023-03-25T03:49:25.048Z,94347.59
2023-03-25T03:51:56.872Z,94352.41
2023-03-25T03:54:26.794Z,94347.22
2023-03-25T03:56:58.284Z,94350.78
2023-03-25T03:59:34.662Z,94358.03
2023-03-25T04:02:06.025Z,94361.84
2023-03-25T04:04:34.862Z,94364.53
2023-03-25T04:07:05.332Z,94365.69
2023-03-25T04:09:38.472Z,94360.88
2023-03-25T04:12:12.140Z,94371.72
2023-03-25T04:14:40.349Z,94370.06
2023-03-25T04:17:07.998Z,94374.88
2023-03-25T04:19:35.689Z,94371.94
2023-03-25T04:22:04.465Z,94379.22
2023-03-25T04:24:32.727Z,94375.00
2023-03-25T04:27:03.400Z,94379.44
2023-03-25T04:29:32.662Z,94382.13
2023-03-25T04:32:00.355Z,94372.97
2023-03-25T04:34:28.087Z,94387.06
2023-03-25T04:36:58.416Z,94390.63
2023-03-25T04:39:29.780Z,94390.88
2023-03-25T04:41:57.516Z,94377.34
2023-03-25T04:44:25.924Z,94375.44
2023-03-25T04:46:56.130Z,94367.22
2023-03-25T04:49:25.107Z,94372.28
2023-03-25T04:51:54.322Z,94361.34
2023-03-25T04:54:23.478Z,94368.06
2023-03-25T04:56:52.412Z,94367.13
2023-03-25T04:59:21.146Z,94376.19
2023-03-25T05:01:49.287Z,94369.63
2023-03-25T05:04:18.891Z,94388.56
2023-03-25T05:06:49.376Z,94375.84
2023-03-25T05:09:19.184Z,94376.66
2023-03-25T05:11:47.377Z,94352.31
2023-03-25T05:14:16.762Z,94353.41
2023-03-25T05:16:45.329Z,94376.66
2023-03-25T05:19:13.657Z,94383.50
2023-03-25T05:21:43.226Z,94390.91
2023-03-25T05:24:13.413Z,94386.66
2023-03-25T05:26:41.988Z,94393.81
2023-03-25T05:29:13.913Z,94387.94
2023-03-25T05:31:42.214Z,94376.28
2023-03-25T05:34:09.892Z,94380.50
2023-03-25T05:36:37.503Z,94375.56
2023-03-25T05:39:08.407Z,94378.75
2023-03-25T05:41:38.678Z,94392.28
2023-03-25T05:44:06.889Z,94394.41
2023-03-25T05:46:34.567Z,94397.94
2023-03-25T05:49:02.357Z,94374.28
2023-03-25T05:51:33.759Z,94381.81
2023-03-25T05:54:02.162Z,94403.00
2023-03-25T05:56:31.289Z,94410.88
2023-03-25T05:58:59.017Z,94424.19
2023-03-25T06:01:33.291Z,94415.25
2023-03-25T06:04:02.832Z,94429.94
2023-03-25T06:06:31.932Z,94434.28
2023-03-25T06:08:59.824Z,94436.38
2023-03-25T06:11:27.480Z,94436.28
2023-03-25T06:13:56.430Z,94445.25
2023-03-25T06:16:27.832Z,94450.78
2023-03-25T06:18:59.498Z,94449.81
2023-03-25T06:21:28.665Z,94450.28
2023-03-25T06:23:58.263Z,94465.13
2023-03-25T06:26:26.445Z,94454.06
2023-03-25T06:28:54.659Z,94448.28
2023-03-25T06:31:27.732Z,94449.00
2023-03-25T06:33:56.819Z,94457.78
2023-03-25T06:36:25.798Z,94454.97
2023-03-25T06:38:54.244Z,94468.38
2023-03-25T06:41:25.074Z,94467.91
2023-03-25T06:43:53.330Z,94468.38
2023-03-25T06:46:21.040Z,94470.03
2023-03-25T06:48:50.081Z,94472.09
2023-03-25T06:51:17.763Z,94472.09
2023-03-25T06:53:45.420Z,94476.81
2023-03-25T06:56:13.477Z,94478.47
2023-03-25T06:58:41.837Z,94482.44
2023-03-25T07:01:12.586Z,94473.31
2023-03-25T07:03:41.116Z,94484.47
2023-03-25T07:06:16.147Z,94490.13
2023-03-25T07:08:44.016Z,94490.03
2023-03-25T07:11:12.031Z,94493.22
2023-03-25T07:13:39.697Z,94496.88
2023-03-25T07:16:09.332Z,94502.75
2023-03-25T07:18:38.805Z,94490.84
2023-03-25T07:21:07.454Z,94479.22
2023-03-25T07:23:36.493Z,94497.81
2023-03-25T07:26:04.134Z,94492.16
2023-03-25T07:28:31.897Z,94498.63
2023-03-25T07:30:59.703Z,94494.19
2023-03-25T07:33:27.452Z,94494.75
2023-03-25T07:35:55.440Z,94486.53
2023-03-25T07:38:23.103Z,94494.75
2023-03-25T07:40:52.076Z,94503.91
2023-03-25T07:43:19.742Z,94495.69
2023-03-25T07:45:47.640Z,94500.38
2023-03-25T07:48:16.276Z,94505.38
2023-03-25T07:50:45.711Z,94512.13
2023-03-25T07:53:13.299Z,94502.53
2023-03-25T07:55:41.014Z,94509.88
2023-03-25T07:58:10.435Z,94497.94
2023-03-25T08:00:38.083Z,94506.75
2023-03-25T08:03:06.621Z,94504.53
2023-03-25T08:05:34.438Z,94516.97
2023-03-25T08:08:02.035Z,94505.50
2023-03-25T08:10:29.758Z,94510.03
2023-03-25T08:12:57.399Z,94515.06
2023-03-25T08:15:26.853Z,94512.69
2023-03-25T08:17:54.561Z,94511.94
2023-03-25T08:20:22.282Z,94510.97
2023-03-25T08:22:49.952Z,94514.66
2023-03-25T08:25:17.620Z,94539.34
2023-03-25T08:27:45.351Z,94524.84
2023-03-25T08:30:14.608Z,94523.16
2023-03-25T08:32:46.324Z,94527.59
2023-03-25T08:35:14.606Z,94527.94
2023-03-25T08:37:42.258Z,94530.50
2023-03-25T08:40:10.286Z,94533.88
2023-03-25T08:42:38.719Z,94535.84
2023-03-25T08:45:07.459Z,94538.47
2023-03-25T08:47:35.285Z,94535.72
2023-03-25T08:50:05.046Z,94537.25
2023-03-25T08:52:33.038Z,94530.63
2023-03-25T08:55:00.933Z,94534.78
2023-03-25T08:57:28.617Z,94530.59
2023-03-25T08:59:56.274Z,94526.06
2023-03-25T09:02:23.953Z,94531.19
2023-03-25T09:04:51.674Z,94532.53
2023-03-25T09:07:23.223Z,94523.72
2023-03-25T09:09:50.963Z,94532.06
2023-03-25T09:12:18.584Z,94533.66
2023-03-25T09:14:46.239Z,94527.00
2023-03-25T09:17:13.866Z,94511.75
2023-03-25T09:19:41.534Z,94523.34
2023-03-25T09:22:09.211Z,94528.44
2023-03-25T09:24:38.871Z,94518.44
2023-03-25T09:27:06.535Z,94510.78
2023-03-25T09:29:36.945Z,94501.25
2023-03-25T09:32:04.643Z,94495.38
2023-03-25T09:34:32.298Z,94492.34
2023-03-25T09:36:59.915Z,94495.38
2023-03-25T09:39:27.866Z,94479.22
2023-03-25T09:42:07.979Z,94464.47
2023-03-25T09:44:38.306Z,94479.06
2023-03-25T09:47:06.602Z,94490.63
2023-03-25T09:49:39.064Z,94497.03
2023-03-25T09:52:08.088Z,94481.78
2023-03-25T09:54:38.728Z,94478.75
2023-03-25T09:57:10.419Z,94482.75
2023-03-25T09:59:41.581Z,94485.59
2023-03-25T10:02:23.165Z,94471.41
2023-03-25T10:05:15.450Z,94468.41
2023-03-25T10:07:53.688Z,94458.91
2023-03-25T10:10:26.371Z,94462.56
2023-03-25T10:13:00.758Z,94456.34
2023-03-25T10:15:32.276Z,94455.41
2023-03-25T10:18:09.815Z,94468.47
2023-03-25T10:20:45.449Z,94470.50
2023-03-25T10:23:18.405Z,94466.13
2023-03-25T10:25:49.259Z,94462.66
2023-03-25T10:28:28.985Z,94446.69
2023-03-25T10:30:57.057Z,94465.97
2023-03-25T10:33:32.158Z,94472.69
2023-03-25T10:36:01.233Z,94477.81
2023-03-25T10:38:30.246Z,94470.84
2023-03-25T10:41:06.973Z,94467.81
2023-03-25T10:43:37.809Z,94462.88
2023-03-25T10:46:14.348Z,94467.00
2023-03-25T10:48:42.057Z,94464.38
2023-03-25T10:51:11.085Z,94460.13
2023-03-25T10:53:39.136Z,94453.66
2023-03-25T10:56:09.209Z,94448.31
2023-03-25T10:58:39.654Z,94437.94
2023-03-25T11:01:12.876Z,94438.38
2023-03-25T11:03:41.975Z,94428.03
2023-03-25T11:06:22.356Z,94438.63
2023-03-25T11:09:12.262Z,94421.56
2023-03-25T11:11:40.164Z,94437.53
2023-03-25T11:14:09.567Z,94436.34
2023-03-25T11:16:42.544Z,94424.31
2023-03-25T11:19:19.605Z,94429.69
2023-03-25T11:21:48.676Z,94428.03
2023-03-25T11:24:18.425Z,94428.84
2023-03-25T11:26:48.271Z,94434.03
2023-03-25T11:29:19.239Z,94427.13
2023-03-25T11:31:57.049Z,94419.28
2023-03-25T11:34:25.347Z,94426.81
2023-03-25T11:36:55.956Z,94432.66
2023-03-25T11:39:30.405Z,94418.84
2023-03-25T11:41:58.974Z,94434.09
2023-03-25T11:44:30.101Z,94427.31
2023-03-25T11:46:59.169Z,94426.25
2023-03-25T11:49:27.313Z,94412.50
2023-03-25T11:51:59.013Z,94418.25
2023-03-25T11:54:27.256Z,94408.59
2023-03-25T11:56:55.910Z,94403.22
2023-03-25T11:59:25.898Z,94394.84
2023-03-25T12:02:03.304Z,94392.16
2023-03-25T12:04:31.398Z,94396.28
2023-03-25T12:07:01.960Z,94392.31
2023-03-25T12:09:31.434Z,94388.72
2023-03-25T12:12:06.672Z,94386.84
2023-03-25T12:14:43.193Z,94386.00
2023-03-25T12:17:19.610Z,94390.97
2023-03-25T12:19:53.970Z,94398.78
2023-03-25T12:22:32.155Z,94388.19
2023-03-25T12:25:11.968Z,94395.75
2023-03-25T12:27:49.580Z,94394.69
2023-03-25T12:30:30.849Z,94390.16
2023-03-25T12:33:08.126Z,94395.38
2023-03-25T12:35:42.411Z,94390.34
2023-03-25T12:38:23.881Z,94381.38
2023-03-25T12:41:01.315Z,94383.28
2023-03-25T12:43:35.875Z,94382.00
2023-03-25T12:46:14.316Z,94388.19
2023-03-25T12:49:01.634Z,94382.63
2023-03-25T12:51:37.299Z,94389.00
2023-03-25T12:54:17.175Z,94395.38
2023-03-25T12:56:49.249Z,94406.56
2023-03-25T12:59:47.929Z,94386.28
2023-03-25T13:02:21.405Z,94373.06
2023-03-25T13:04:59.006Z,94374.78
2023-03-25T13:07:29.634Z,94386.13
2023-03-25T13:10:03.697Z,94379.03
2023-03-25T13:12:33.805Z,94376.59
2023-03-25T13:15:07.776Z,94384.13
2023-03-25T13:17:38.563Z,94379.44
2023-03-25T13:20:11.073Z,94372.88
2023-03-25T13:22:44.138Z,94375.06
2023-03-25T13:25:20.744Z,94380.84
2023-03-25T13:27:48.787Z,94388.78
2023-03-25T13:30:20.473Z,94376.75
2023-03-25T13:32:50.832Z,94371.91
2023-03-25T13:35:23.179Z,94394.66
2023-03-25T13:37:53.868Z,94382.19
2023-03-25T13:40:25.218Z,94404.91
2023-03-25T13:42:56.594Z,94397.66
2023-03-25T13:45:25.733Z,94392.22
2023-03-25T13:47:55.764Z,94396.13
2023-03-25T13:50:27.830Z,94392.06
2023-03-25T13:52:59.191Z,94395.50
2023-03-25T13:55:33.012Z,94395.22
2023-03-25T13:58:32.057Z,94374.63
2023-03-25T14:01:28.885Z,94384.03
2023-03-25T14:04:45.405Z,94381.44
2023-03-25T14:07:46.499Z,94374.13
2023-03-25T14:10:42.670Z,94371.75
2023-03-25T14:13:14.058Z,94377.47
2023-03-25T14:15:43.418Z,94380.13
2023-03-25T14:18:17.638Z,94376.13
2023-03-25T14:20:45.989Z,94378.50
2023-03-25T14:23:15.790Z,94357.31
2023-03-25T14:25:47.553Z,94364.34
2023-03-25T14:28:18.655Z,94364.63
2023-03-25T14:30:46.500Z,94359.81
2023-03-25T14:33:14.231Z,94364.72
2023-03-25T14:35:50.005Z,94369.31
2023-03-25T14:38:50.968Z,94362.72
2023-03-25T14:41:54.894Z,94360.81
2023-03-25T14:44:23.585Z,94358.16
2023-03-25T14:47:02.554Z,94354.06
2023-03-25T14:49:50.093Z,94354.63
2023-03-25T14:52:20.737Z,94336.84
2023-03-25T14:54:52.915Z,94354.31
2023-03-25T14:57:22.949Z,94350.47
2023-03-25T14:59:52.857Z,94355.94
2023-03-25T15:02:23.135Z,94354.06
2023-03-25T15:04:55.260Z,94357.34
2023-03-25T15:07:42.879Z,94365.75
2023-03-25T15:10:21.242Z,94361.09
2023-03-25T15:12:53.635Z,94365.47
2023-03-25T15:15:30.507Z,94363.81
2023-03-25T15:18:00.192Z,94362.22
2023-03-25T15:20:36.041Z,94361.00
2023-03-25T15:23:38.510Z,94366.31
2023-03-25T15:26:09.620Z,94379.47
2023-03-25T15:29:06.506Z,94366.19
2023-03-25T15:31:48.261Z,94361.03
2023-03-25T15:34:25.414Z,94368.91
2023-03-25T15:37:14.221Z,94356.56
2023-03-25T15:40:03.388Z,94357.66
2023-03-25T15:42:51.706Z,94346.44
2023-03-25T15:45:56.934Z,94352.94
2023-03-25T15:49:12.124Z,94352.69
2023-03-25T15:51:54.314Z,94346.66
2023-03-25T15:54:34.340Z,94354.50
2023-03-25T15:57:06.431Z,94355.88
2023-03-25T15:59:39.379Z,94349.25
2023-03-25T16:02:18.445Z,94355.19
2023-03-25T16:04:48.283Z,94335.84
2023-03-25T16:07:18.383Z,94349.66
2023-03-25T16:09:47.779Z,94349.81
2023-03-25T16:12:20.483Z,94355.22
2023-03-25T16:14:49.257Z,94350.63
2023-03-25T16:17:18.788Z,94352.25
2023-03-25T16:19:49.539Z,94351.69
2023-03-25T16:22:21.465Z,94366.09
2023-03-25T16:24:50.130Z,94365.84
2023-03-25T16:27:23.617Z,94361.94
2023-03-25T16:29:52.834Z,94368.44
2023-03-25T16:32:24.425Z,94362.91
2023-03-25T16:34:53.877Z,94361.81
2023-03-25T16:37:22.707Z,94367.16
2023-03-25T16:39:54.325Z,94365.50
2023-03-25T16:42:27.382Z,94370.88
2023-03-25T16:44:55.515Z,94376.72
2023-03-25T16:47:24.764Z,94375.66
2023-03-25T16:49:54.597Z,94373.97
2023-03-25T16:52:26.151Z,94383.56
2023-03-25T16:55:27.612Z,94379.72
2023-03-25T16:57:55.629Z,94390.47
2023-03-25T17:00:24.482Z,94383.09
2023-03-25T17:02:54.179Z,94398.75
2023-03-25T17:05:23.705Z,94390.25
2023-03-25T17:07:58.118Z,94402.72
2023-03-25T17:10:27.430Z,94403.66
2023-03-25T17:12:57.852Z,94405.16
2023-03-25T17:15:26.913Z,94407.97
2023-03-25T17:18:01.185Z,94410.34
2023-03-25T17:20:34.633Z,94412.28
2023-03-25T17:23:04.456Z,94419.25
2023-03-25T17:25:34.977Z,94414.25
2023-03-25T17:28:09.064Z,94425.50
2023-03-25T17:30:42.788Z,94404.59
2023-03-25T17:33:15.581Z,94410.50
2023-03-25T17:35:45.277Z,94421.59
2023-03-25T17:38:19.593Z,94422.25
2023-03-25T17:40:47.317Z,94425.38
2023-03-25T17:43:19.954Z,94436.97
2023-03-25T17:45:48.154Z,94440.75
2023-03-25T17:48:18.181Z,94436.63
2023-03-25T17:50:53.298Z,94427.56
2023-03-25T17:53:21.227Z,94430.28
2023-03-25T17:55:49.580Z,94441.47
2023-03-25T17:58:17.880Z,94422.16
2023-03-25T18:00:46.396Z,94426.75
2023-03-25T18:03:15.304Z,94431.16
2023-03-25T18:05:45.675Z,94443.00
2023-03-25T18:08:14.389Z,94439.19
2023-03-25T18:10:44.107Z,94454.31
2023-03-25T18:13:12.469Z,94460.56
2023-03-25T18:15:40.714Z,94481.19
2023-03-25T18:18:09.286Z,94476.81
2023-03-25T18:20:38.201Z,94468.16
2023-03-25T18:23:07.134Z,94469.09
2023-03-25T18:25:34.954Z,94471.13
2023-03-25T18:28:02.800Z,94478.56
2023-03-25T18:30:34.502Z,94472.31
2023-03-25T18:33:02.168Z,94475.50
2023-03-25T18:35:29.889Z,94478.94
2023-03-25T18:37:57.550Z,94480.25
2023-03-25T18:40:29.571Z,94487.22
2023-03-25T18:42:57.231Z,94484.97
2023-03-25T18:45:26.542Z,94470.81
2023-03-25T18:47:54.557Z,94482.16
2023-03-25T18:50:27.604Z,94472.28
2023-03-25T18:52:55.877Z,94474.88
2023-03-25T18:55:23.768Z,94486.50
2023-03-25T18:57:52.745Z,94491.44
2023-03-25T19:00:23.812Z,94491.69
2023-03-25T19:02:52.611Z,94480.28
2023-03-25T19:05:20.643Z,94486.84
2023-03-25T19:07:49.302Z,94482.16
2023-03-25T19:10:18.720Z,94481.56
2023-03-25T19:12:47.065Z,94485.94
2023-03-25T19:15:18.879Z,94479.31
2023-03-25T19:17:47.864Z,94489.09
2023-03-25T19:20:19.036Z,94485.00
2023-03-25T19:22:47.095Z,94480.41
2023-03-25T19:25:16.264Z,94472.16
2023-03-25T19:27:43.974Z,94477.59
2023-03-25T19:30:14.872Z,94494.97
2023-03-25T19:32:44.191Z,94480.88
2023-03-25T19:35:13.098Z,94477.13
2023-03-25T19:37:47.390Z,94480.06
2023-03-25T19:40:16.962Z,94482.03
2023-03-25T19:42:44.598Z,94474.66
2023-03-25T19:45:13.800Z,94476.03
2023-03-25T19:47:42.916Z,94474.66
2023-03-25T19:50:14.698Z,94484.38
2023-03-25T19:52:43.581Z,94476.28
2023-03-25T19:55:11.936Z,94476.75
2023-03-25T19:57:39.983Z,94476.16
2023-03-25T20:00:12.540Z,94480.19
2023-03-25T20:02:40.904Z,94485.94
2023-03-25T20:05:10.615Z,94481.22
2023-03-25T20:07:40.574Z,94484.97
2023-03-25T20:10:19.525Z,94483.59
2023-03-25T20:12:48.730Z,94490.78
2023-03-25T20:15:17.699Z,94496.19
2023-03-25T20:17:45.541Z,94483.94
2023-03-25T20:20:14.769Z,94490.16
2023-03-25T20:22:43.806Z,94482.88
2023-03-25T20:25:12.494Z,94492.41
2023-03-25T20:27:41.983Z,94484.50
2023-03-25T20:30:11.310Z,94491.25
2023-03-25T20:32:41.381Z,94491.69
2023-03-25T20:35:12.466Z,94491.69
2023-03-25T20:37:40.631Z,94493.59
2023-03-25T20:40:12.841Z,94501.94
2023-03-25T20:42:41.318Z,94497.00
2023-03-25T20:45:10.893Z,94489.69
2023-03-25T20:47:39.105Z,94491.13
2023-03-25T20:50:08.251Z,94487.56
2023-03-25T20:52:36.278Z,94487.47
2023-03-25T20:55:05.625Z,94490.16
2023-03-25T20:57:34.716Z,94487.34
2023-03-25T21:00:02.443Z,94501.09
2023-03-25T21:02:30.163Z,94499.22
2023-03-25T21:04:59.106Z,94495.91
2023-03-25T21:07:29.179Z,94488.88
2023-03-25T21:09:57.354Z,94496.16
2023-03-25T21:12:36.476Z,94492.03
2023-03-25T21:15:10.776Z,94480.16
2023-03-25T21:17:38.493Z,94476.03
2023-03-25T21:20:07.513Z,94480.88
2023-03-25T21:22:35.573Z,94467.22
2023-03-25T21:25:03.297Z,94479.22
2023-03-25T21:27:38.174Z,94473.00
2023-03-25T21:30:09.351Z,94466.72
2023-03-25T21:32:38.747Z,94468.84
2023-03-25T21:35:07.833Z,94468.03
2023-03-25T21:37:37.934Z,94471.56
2023-03-25T21:40:10.153Z,94460.97
2023-03-25T21:42:38.704Z,94450.38
2023-03-25T21:45:08.378Z,94466.38
2023-03-25T21:47:36.556Z,94469.31
2023-03-25T21:50:09.735Z,94467.69
2023-03-25T21:52:37.989Z,94466.63
2023-03-25T21:55:06.465Z,94463.91
2023-03-25T21:57:39.031Z,94465.78
2023-03-25T22:00:08.942Z,94474.72
2023-03-25T22:02:36.727Z,94461.19
2023-03-25T22:05:06.536Z,94462.75
2023-03-25T22:07:34.159Z,94461.94
2023-03-25T22:10:01.796Z,94459.00
2023-03-25T22:12:29.937Z,94463.91
2023-03-25T22:14:57.598Z,94461.44
2023-03-25T22:17:25.430Z,94454.75
2023-03-25T22:19:53.090Z,94467.22
2023-03-25T22:22:23.107Z,94461.81
2023-03-25T22:24:51.308Z,94461.81
2023-03-25T22:27:18.989Z,94457.47
2023-03-25T22:29:46.561Z,94451.00
2023-03-25T22:32:14.177Z,94451.59
2023-03-25T22:34:42.127Z,94448.88
2023-03-25T22:37:09.813Z,94449.69
2023-03-25T22:39:38.973Z,94452.63
2023-03-25T22:42:06.878Z,94459.22
2023-03-25T22:44:34.480Z,94456.88
2023-03-25T22:47:03.218Z,94453.25
2023-03-25T22:49:31.190Z,94447.00
2023-03-25T22:51:58.815Z,94447.56
2023-03-25T22:54:26.611Z,94450.88
2023-03-25T22:56:55.663Z,94444.16
2023-03-25T22:59:23.310Z,94446.28
2023-03-25T23:02:07.433Z,94439.00
2023-03-25T23:04:35.300Z,94434.78
2023-03-25T23:07:07.894Z,94432.66
2023-03-25T23:09:41.279Z,94425.22
2023-03-25T23:12:11.454Z,94427.69
2023-03-25T23:14:40.390Z,94438.75
2023-03-25T23:17:08.485Z,94436.28
2023-03-25T23:19:36.103Z,94436.53
2023-03-25T23:22:04.837Z,94435.69
2023-03-25T23:24:35.900Z,94442.66
2023-03-25T23:27:04.311Z,94433.94
2023-03-25T23:29:35.641Z,94436.41
2023-03-25T23:32:04.885Z,94447.00
2023-03-25T23:34:33.899Z,94451.59
2023-03-25T23:37:01.645Z,94457.56
2023-03-25T23:39:29.680Z,94463.00
2023-03-25T23:41:57.598Z,94470.28
2023-03-25T23:44:25.555Z,94451.13
2023-03-25T23:46:54.672Z,94459.00
2023-03-25T23:49:22.352Z,94455.22
2023-03-25T23:51:51.016Z,94456.41
2023-03-25T23:54:18.800Z,94456.75
2023-03-25T23:56:46.742Z,94452.16
2023-03-25T23:59:14.563Z,94457.13
